In Rescue
 
Open Full Screen Window  High Contrast Mode
Wind Gusting 15 knots
09
May 20, 2019 2:26 PM EDT
Weather Information
Wind Direction
  350 °
Wind Speed
  09 kt (10 mph)
Wind Gust
  15 kt (17 mph)
Variable Wind
310°
020°
Altimeter
30.06 in
Visibility
10 SM
Temperature
11° C
52° F
Dewpoint
04° C
39° F
Humidity
62%
Sky Condition
Scattered @ 10,000 ft
VFR

METAR KFKS 201826Z AUTO 35009G15KT 310V020 10SM SCT100 11/04 A3006 RMK AO2 T01080038

FAA Disclaimer: The data displayed is for advisory purposes only and is not to be used for flight planning or operations.